sensor_id;sensor_type;location;lat;lon;timestamp;pressure;altitude;pressure_sealevel;temperature;humidity
46129;BME280;31860;45.186;5.790;2023-03-01T00:02:17;99450.41;;;8.38;51.51
46129;BME280;31860;45.186;5.790;2023-03-01T00:04:43;99440.88;;;8.40;51.41
46129;BME280;31860;45.186;5.790;2023-03-01T00:07:08;99444.38;;;8.39;51.32
46129;BME280;31860;45.186;5.790;2023-03-01T00:09:36;99434.78;;;8.38;51.63
46129;BME280;31860;45.186;5.790;2023-03-01T00:12:02;99438.28;;;8.38;51.52
46129;BME280;31860;45.186;5.790;2023-03-01T00:14:28;99447.81;;;8.39;51.60
46129;BME280;31860;45.186;5.790;2023-03-01T00:16:54;99446.97;;;8.40;51.55
46129;BME280;31860;45.186;5.790;2023-03-01T00:19:20;99446.09;;;8.38;51.65
46129;BME280;31860;45.186;5.790;2023-03-01T00:21:47;99432.19;;;8.38;51.93
46129;BME280;31860;45.186;5.790;2023-03-01T00:24:13;99439.16;;;8.39;51.66
46129;BME280;31860;45.186;5.790;2023-03-01T00:26:39;99435.69;;;8.40;51.61
46129;BME280;31860;45.186;5.790;2023-03-01T00:29:05;99432.19;;;8.39;51.81
46129;BME280;31860;45.186;5.790;2023-03-01T00:31:32;99443.53;;;8.43;51.85
46129;BME280;31860;45.186;5.790;2023-03-01T00:34:01;99438.31;;;8.41;51.72
46129;BME280;31860;45.186;5.790;2023-03-01T00:36:29;99435.69;;;8.41;51.74
46129;BME280;31860;45.186;5.790;2023-03-01T00:38:55;99426.16;;;8.40;51.67
46129;BME280;31860;45.186;5.790;2023-03-01T00:41:22;99430.50;;;8.41;51.68
46129;BME280;31860;45.186;5.790;2023-03-01T00:43:49;99424.41;;;8.41;51.90
46129;BME280;31860;45.186;5.790;2023-03-01T00:46:18;99427.88;;;8.40;51.82
46129;BME280;31860;45.186;5.790;2023-03-01T00:48:45;99429.59;;;8.39;51.72
46129;BME280;31860;45.186;5.790;2023-03-01T00:51:15;99427.00;;;8.39;52.11
46129;BME280;31860;45.186;5.790;2023-03-01T00:53:41;99430.47;;;8.40;51.80
46129;BME280;31860;45.186;5.790;2023-03-01T00:56:09;99437.41;;;8.38;51.83
46129;BME280;31860;45.186;5.790;2023-03-01T00:58:35;99433.06;;;8.37;51.61
46129;BME280;31860;45.186;5.790;2023-03-01T01:01:07;99433.91;;;8.36;51.79
46129;BME280;31860;45.186;5.790;2023-03-01T01:03:32;99427.84;;;8.37;51.32
46129;BME280;31860;45.186;5.790;2023-03-01T01:05:58;99422.59;;;8.34;51.51
46129;BME280;31860;45.186;5.790;2023-03-01T01:08:23;99429.50;;;8.32;51.68
46129;BME280;31860;45.186;5.790;2023-03-01T01:10:49;99416.47;;;8.30;51.55
46129;BME280;31860;45.186;5.790;2023-03-01T01:13:14;99417.28;;;8.26;51.67
46129;BME280;31860;45.186;5.790;2023-03-01T01:15:40;99419.00;;;8.26;51.79
46129;BME280;31860;45.186;5.790;2023-03-01T01:18:09;99413.78;;;8.24;51.61
46129;BME280;31860;45.186;5.790;2023-03-01T01:20:35;99402.47;;;8.22;51.80
46129;BME280;31860;45.186;5.790;2023-03-01T01:23:02;99403.31;;;8.21;51.83
46129;BME280;31860;45.186;5.790;2023-03-01T01:25:29;99406.75;;;8.19;52.02
46129;BME280;31860;45.186;5.790;2023-03-01T01:27:55;99399.81;;;8.18;51.95
46129;BME280;31860;45.186;5.790;2023-03-01T01:30:20;99400.66;;;8.17;51.87
46129;BME280;31860;45.186;5.790;2023-03-01T01:32:46;99407.56;;;8.15;51.67
46129;BME280;31860;45.186;5.790;2023-03-01T01:35:12;99400.63;;;8.12;52.01
46129;BME280;31860;45.186;5.790;2023-03-01T01:37:37;99396.25;;;8.10;52.15
46129;BME280;31860;45.186;5.790;2023-03-01T01:40:03;99387.56;;;8.09;52.39
46129;BME280;31860;45.186;5.790;2023-03-01T01:42:30;99388.44;;;8.08;52.45
46129;BME280;31860;45.186;5.790;2023-03-01T01:45:34;99390.16;;;8.09;52.67
46129;BME280;31860;45.186;5.790;2023-03-01T01:48:04;99385.81;;;8.08;52.69
46129;BME280;31860;45.186;5.790;2023-03-01T01:50:35;99379.75;;;8.09;52.81
46129;BME280;31860;45.186;5.790;2023-03-01T01:53:06;99377.16;;;8.11;52.51
46129;BME280;31860;45.186;5.790;2023-03-01T01:55:36;99376.31;;;8.12;52.89
46129;BME280;31860;45.186;5.790;2023-03-01T01:58:07;99368.53;;;8.12;52.92
46129;BME280;31860;45.186;5.790;2023-03-01T02:00:34;99372.91;;;8.14;52.73
46129;BME280;31860;45.186;5.790;2023-03-01T02:03:03;99372.00;;;8.14;53.02
46129;BME280;31860;45.186;5.790;2023-03-01T02:08:17;99367.69;;;8.14;52.52
46129;BME280;31860;45.186;5.790;2023-03-01T02:10:44;99360.72;;;8.13;52.62
46129;BME280;31860;45.186;5.790;2023-03-01T02:13:10;99358.13;;;8.12;52.55
46129;BME280;31860;45.186;5.790;2023-03-01T02:15:41;99354.63;;;8.10;52.75
46129;BME280;31860;45.186;5.790;2023-03-01T02:18:10;99353.75;;;8.09;53.01
46129;BME280;31860;45.186;5.790;2023-03-01T02:20:48;99348.53;;;8.08;53.07
46129;BME280;31860;45.186;5.790;2023-03-01T02:23:18;99341.59;;;8.08;52.78
46129;BME280;31860;45.186;5.790;2023-03-01T02:25:52;99339.00;;;8.10;52.82
46129;BME280;31860;45.186;5.790;2023-03-01T02:28:32;99332.09;;;8.09;52.54
46129;BME280;31860;45.186;5.790;2023-03-01T02:30:59;99335.50;;;8.06;52.96
46129;BME280;31860;45.186;5.790;2023-03-01T02:33:45;99325.94;;;8.04;52.87
46129;BME280;31860;45.186;5.790;2023-03-01T02:36:20;99335.44;;;8.02;52.96
46129;BME280;31860;45.186;5.790;2023-03-01T02:38:47;99326.75;;;8.00;53.05
46129;BME280;31860;45.186;5.790;2023-03-01T02:41:15;99319.81;;;7.99;52.92
46129;BME280;31860;45.186;5.790;2023-03-01T02:43:41;99317.22;;;7.99;53.19
46129;BME280;31860;45.186;5.790;2023-03-01T02:46:14;99314.63;;;8.00;53.74
46129;BME280;31860;45.186;5.790;2023-03-01T02:57:01;99307.59;;;7.93;53.81
46129;BME280;31860;45.186;5.790;2023-03-01T02:59:30;99298.09;;;7.94;53.71
46129;BME280;31860;45.186;5.790;2023-03-01T03:01:56;99290.28;;;7.94;53.83
46129;BME280;31860;45.186;5.790;2023-03-01T03:04:22;99289.41;;;7.95;54.02
46129;BME280;31860;45.186;5.790;2023-03-01T03:06:49;99287.69;;;7.95;54.37
46129;BME280;31860;45.186;5.790;2023-03-01T03:09:16;99282.50;;;7.97;54.21
46129;BME280;31860;45.186;5.790;2023-03-01T03:11:41;99285.13;;;7.98;54.46
46129;BME280;31860;45.186;5.790;2023-03-01T03:14:09;99286.03;;;8.02;54.50
46129;BME280;31860;45.186;5.790;2023-03-01T03:16:45;99286.91;;;8.02;54.15
46129;BME280;31860;45.186;5.790;2023-03-01T03:19:14;99286.03;;;8.02;53.92
46129;BME280;31860;45.186;5.790;2023-03-01T03:21:42;99281.69;;;8.01;53.76
46129;BME280;31860;45.186;5.790;2023-03-01T03:24:08;99274.72;;;7.98;53.65
46129;BME280;31860;45.186;5.790;2023-03-01T03:26:34;99282.53;;;7.98;53.75
46129;BME280;31860;45.186;5.790;2023-03-01T03:28:59;99284.28;;;7.99;53.60
46129;BME280;31860;45.186;5.790;2023-03-01T03:31:25;99285.13;;;8.00;53.89
46129;BME280;31860;45.186;5.790;2023-03-01T03:33:50;99280.81;;;7.99;53.78
46129;BME280;31860;45.186;5.790;2023-03-01T03:36:18;99282.50;;;7.97;53.91
46129;BME280;31860;45.186;5.790;2023-03-01T03:38:44;99277.31;;;7.98;54.11
46129;BME280;31860;45.186;5.790;2023-03-01T03:41:11;99277.31;;;7.97;54.09
46129;BME280;31860;45.186;5.790;2023-03-01T03:43:39;99284.25;;;7.98;54.32
46129;BME280;31860;45.186;5.790;2023-03-01T03:46:07;99278.19;;;7.99;53.96
46129;BME280;31860;45.186;5.790;2023-03-01T03:48:35;99276.44;;;7.98;53.82
46129;BME280;31860;45.186;5.790;2023-03-01T03:51:01;99282.50;;;7.97;53.73
46129;BME280;31860;45.186;5.790;2023-03-01T03:53:28;99282.50;;;7.97;54.00
46129;BME280;31860;45.186;5.790;2023-03-01T03:55:55;99279.03;;;7.96;54.05
46129;BME280;31860;45.186;5.790;2023-03-01T03:58:23;99283.34;;;7.96;53.88
46129;BME280;31860;45.186;5.790;2023-03-01T04:00:52;99279.03;;;7.95;53.87
46129;BME280;31860;45.186;5.790;2023-03-01T04:03:19;99277.25;;;7.92;54.20
46129;BME280;31860;45.186;5.790;2023-03-01T04:05:46;99272.03;;;7.92;54.02
46129;BME280;31860;45.186;5.790;2023-03-01T04:08:13;99267.72;;;7.91;54.12
46129;BME280;31860;45.186;5.790;2023-03-01T04:10:41;99268.59;;;7.93;54.61
46129;BME280;31860;45.186;5.790;2023-03-01T04:13:12;99262.53;;;7.93;54.64
46129;BME280;31860;45.186;5.790;2023-03-01T04:15:39;99262.53;;;7.93;54.66
46129;BME280;31860;45.186;5.790;2023-03-01T04:18:05;99259.03;;;7.92;54.44
46129;BME280;31860;45.186;5.790;2023-03-01T04:20:33;99256.50;;;7.94;54.95
46129;BME280;31860;45.186;5.790;2023-03-01T04:23:14;99258.19;;;7.93;55.19
46129;BME280;31860;45.186;5.790;2023-03-01T04:25:54;99257.31;;;7.93;55.09
46129;BME280;31860;45.186;5.790;2023-03-01T04:28:31;99251.28;;;7.94;55.14
46129;BME280;31860;45.186;5.790;2023-03-01T04:31:02;99258.22;;;7.95;55.06
46129;BME280;31860;45.186;5.790;2023-03-01T04:33:38;99252.13;;;7.91;55.27
46129;BME280;31860;45.186;5.790;2023-03-01T04:36:04;99253.84;;;7.92;54.87
46129;BME280;31860;45.186;5.790;2023-03-01T04:38:30;99255.59;;;7.93;54.96
46129;BME280;31860;45.186;5.790;2023-03-01T04:40:55;99250.41;;;7.92;55.10
46129;BME280;31860;45.186;5.790;2023-03-01T04:43:21;99255.59;;;7.92;55.39
46129;BME280;31860;45.186;5.790;2023-03-01T04:45:46;99258.19;;;7.93;55.41
46129;BME280;31860;45.186;5.790;2023-03-01T04:48:12;99258.19;;;7.93;55.41
46129;BME280;31860;45.186;5.790;2023-03-01T04:50:37;99249.53;;;7.93;55.57
46129;BME280;31860;45.186;5.790;2023-03-01T04:53:03;99255.59;;;7.93;55.57
46129;BME280;31860;45.186;5.790;2023-03-01T04:55:29;99252.13;;;7.93;55.55
46129;BME280;31860;45.186;5.790;2023-03-01T04:57:55;99255.59;;;7.92;55.75
46129;BME280;31860;45.186;5.790;2023-03-01T05:00:21;99258.19;;;7.92;55.50
46129;BME280;31860;45.186;5.790;2023-03-01T05:02:49;99247.78;;;7.92;55.77
46129;BME280;31860;45.186;5.790;2023-03-01T05:05:26;99256.50;;;7.94;55.73
46129;BME280;31860;45.186;5.790;2023-03-01T05:07:57;99253.00;;;7.92;55.72
46129;BME280;31860;45.186;5.790;2023-03-01T05:10:24;99251.25;;;7.92;55.42
46129;BME280;31860;45.186;5.790;2023-03-01T05:12:50;99250.41;;;7.92;55.50
46129;BME280;31860;45.186;5.790;2023-03-01T05:15:19;99255.59;;;7.92;55.34
46129;BME280;31860;45.186;5.790;2023-03-01T05:17:47;99255.59;;;7.92;55.42
46129;BME280;31860;45.186;5.790;2023-03-01T05:20:13;99260.78;;;7.92;55.65
46129;BME280;31860;45.186;5.790;2023-03-01T05:22:38;99247.78;;;7.92;55.54
46129;BME280;31860;45.186;5.790;2023-03-01T05:25:04;99246.91;;;7.90;55.25
46129;BME280;31860;45.186;5.790;2023-03-01T05:27:33;99251.22;;;7.91;55.57
46129;BME280;31860;45.186;5.790;2023-03-01T05:29:58;99239.09;;;7.90;55.41
46129;BME280;31860;45.186;5.790;2023-03-01T05:32:24;99248.59;;;7.88;55.46
46129;BME280;31860;45.186;5.790;2023-03-01T05:34:50;99248.63;;;7.89;55.56
46129;BME280;31860;45.186;5.790;2023-03-01T05:37:17;99244.25;;;7.87;55.52
46129;BME280;31860;45.186;5.790;2023-03-01T05:39:43;99236.50;;;7.90;55.63
46129;BME280;31860;45.186;5.790;2023-03-01T05:42:10;99238.22;;;7.89;55.88
46129;BME280;31860;45.186;5.790;2023-03-01T05:44:39;99241.69;;;7.90;55.98
46129;BME280;31860;45.186;5.790;2023-03-01T05:47:05;99239.06;;;7.88;56.07
46129;BME280;31860;45.186;5.790;2023-03-01T05:49:31;99242.56;;;7.90;56.08
46129;BME280;31860;45.186;5.790;2023-03-01T05:51:57;99235.69;;;7.94;56.21
46129;BME280;31860;45.186;5.790;2023-03-01T05:54:23;99230.50;;;7.97;56.08
46129;BME280;31860;45.186;5.790;2023-03-01T05:56:48;99239.19;;;8.00;55.73
46129;BME280;31860;45.186;5.790;2023-03-01T05:59:14;99240.09;;;8.04;55.74
46129;BME280;31860;45.186;5.790;2023-03-01T06:01:41;99240.16;;;8.07;55.71
46129;BME280;31860;45.186;5.790;2023-03-01T06:04:07;99245.38;;;8.10;55.69
46129;BME280;31860;45.186;5.790;2023-03-01T06:06:35;99239.31;;;8.11;55.76
46129;BME280;31860;45.186;5.790;2023-03-01T06:09:04;99240.19;;;8.13;55.85
46129;BME280;31860;45.186;5.790;2023-03-01T06:11:30;99240.19;;;8.13;55.75
46129;BME280;31860;45.186;5.790;2023-03-01T06:13:56;99235.03;;;8.14;55.70
46129;BME280;31860;45.186;5.790;2023-03-01T06:16:21;99228.97;;;8.15;55.65
46129;BME280;31860;45.186;5.790;2023-03-01T06:18:47;99235.88;;;8.12;55.51
46129;BME280;31860;45.186;5.790;2023-03-01T06:21:12;99239.28;;;8.09;55.23
46129;BME280;31860;45.186;5.790;2023-03-01T06:23:37;99240.16;;;8.08;55.11
46129;BME280;31860;45.186;5.790;2023-03-01T06:26:07;99241.88;;;8.05;55.03
46129;BME280;31860;45.186;5.790;2023-03-01T06:28:33;99236.69;;;8.06;55.04
46129;BME280;31860;45.186;5.790;2023-03-01T06:30:59;99234.06;;;8.06;55.12
46129;BME280;31860;45.186;5.790;2023-03-01T06:33:24;99241.88;;;8.08;55.06
46129;BME280;31860;45.186;5.790;2023-03-01T06:35:50;99236.69;;;8.08;55.05
46129;BME280;31860;45.186;5.790;2023-03-01T06:38:16;99233.25;;;8.09;55.22
46129;BME280;31860;45.186;5.790;2023-03-01T06:40:44;99236.69;;;8.09;55.33
46129;BME280;31860;45.186;5.790;2023-03-01T06:43:10;99230.66;;;8.10;55.60
46129;BME280;31860;45.186;5.790;2023-03-01T06:45:37;99238.47;;;8.10;55.39
46129;BME280;31860;45.186;5.790;2023-03-01T06:48:06;99245.38;;;8.10;55.53
46129;BME280;31860;45.186;5.790;2023-03-01T06:50:32;99240.16;;;8.08;55.51
46129;BME280;31860;45.186;5.790;2023-03-01T06:52:58;99246.19;;;8.06;55.39
46129;BME280;31860;45.186;5.790;2023-03-01T06:55:24;99242.72;;;8.05;55.69
46129;BME280;31860;45.186;5.790;2023-03-01T06:57:54;99240.97;;;8.04;55.57
46129;BME280;31860;45.186;5.790;2023-03-01T07:00:20;99244.44;;;8.03;55.64
46129;BME280;31860;45.186;5.790;2023-03-01T07:02:46;99247.00;;;8.00;55.67
46129;BME280;31860;45.186;5.790;2023-03-01T07:05:11;99242.69;;;8.01;55.89
46129;BME280;31860;45.186;5.790;2023-03-01T07:07:37;99247.88;;;8.01;55.97
46129;BME280;31860;45.186;5.790;2023-03-01T07:10:03;99243.53;;;8.00;55.97
46129;BME280;31860;45.186;5.790;2023-03-01T07:12:29;99246.13;;;8.00;56.28
46129;BME280;31860;45.186;5.790;2023-03-01T07:14:54;99249.59;;;7.99;56.33
46129;BME280;31860;45.186;5.790;2023-03-01T07:17:20;99245.22;;;7.98;56.15
46129;BME280;31860;45.186;5.790;2023-03-01T07:19:45;99250.41;;;7.96;56.23
46129;BME280;31860;45.186;5.790;2023-03-01T07:22:11;99253.00;;;7.95;56.65
46129;BME280;31860;45.186;5.790;2023-03-01T07:24:36;99251.28;;;7.95;56.35
46129;BME280;31860;45.186;5.790;2023-03-01T07:27:02;99245.22;;;7.96;56.32
46129;BME280;31860;45.186;5.790;2023-03-01T07:29:28;99249.53;;;7.96;56.33
46129;BME280;31860;45.186;5.790;2023-03-01T07:31:54;99249.53;;;7.96;56.72
46129;BME280;31860;45.186;5.790;2023-03-01T07:34:19;99250.41;;;7.96;56.25
46129;BME280;31860;45.186;5.790;2023-03-01T07:36:45;99249.53;;;7.96;56.21
46129;BME280;31860;45.186;5.790;2023-03-01T07:39:11;99249.59;;;7.97;55.83
46129;BME280;31860;45.186;5.790;2023-03-01T07:41:36;99254.78;;;7.97;55.86
46129;BME280;31860;45.186;5.790;2023-03-01T07:44:02;99247.84;;;7.98;55.56
46129;BME280;31860;45.186;5.790;2023-03-01T07:46:28;99249.59;;;7.97;55.33
46129;BME280;31860;45.186;5.790;2023-03-01T07:48:53;99244.38;;;7.97;55.08
46129;BME280;31860;45.186;5.790;2023-03-01T07:51:19;99245.22;;;7.96;55.10
46129;BME280;31860;45.186;5.790;2023-03-01T07:53:47;99245.22;;;7.96;55.08
46129;BME280;31860;45.186;5.790;2023-03-01T07:56:14;99246.09;;;7.95;55.07
46129;BME280;31860;45.186;5.790;2023-03-01T07:58:41;99240.03;;;7.96;55.04
46129;BME280;31860;45.186;5.790;2023-03-01T08:01:09;99238.31;;;7.97;55.06
46129;BME280;31860;45.186;5.790;2023-03-01T08:03:36;99237.41;;;7.96;55.05
46129;BME280;31860;45.186;5.790;2023-03-01T08:06:04;99231.38;;;7.97;55.05
46129;BME280;31860;45.186;5.790;2023-03-01T08:08:30;99228.78;;;7.99;54.98
46129;BME280;31860;45.186;5.790;2023-03-01T08:10:59;99226.19;;;7.99;55.04
46129;BME280;31860;45.186;5.790;2023-03-01T08:13:26;99231.41;;;7.99;55.10
46129;BME280;31860;45.186;5.790;2023-03-01T08:15:52;99228.81;;;8.00;55.12
46129;BME280;31860;45.186;5.790;2023-03-01T08:18:19;99234.88;;;8.01;55.39
46129;BME280;31860;45.186;5.790;2023-03-01T08:20:45;99230.56;;;8.03;55.09
46129;BME280;31860;45.186;5.790;2023-03-01T08:23:10;99234.06;;;8.05;55.26
46129;BME280;31860;45.186;5.790;2023-03-01T08:25:36;99235.78;;;8.04;55.08
46129;BME280;31860;45.186;5.790;2023-03-01T08:28:01;99238.41;;;8.06;55.19
46129;BME280;31860;45.186;5.790;2023-03-01T08:30:27;99232.38;;;8.08;55.07
46129;BME280;31860;45.186;5.790;2023-03-01T08:32:53;99232.38;;;8.10;54.90
46129;BME280;31860;45.186;5.790;2023-03-01T08:35:19;99235.84;;;8.09;54.75
46129;BME280;31860;45.186;5.790;2023-03-01T08:37:45;99234.09;;;8.08;54.41
46129;BME280;31860;45.186;5.790;2023-03-01T08:40:11;99237.56;;;8.08;54.96
46129;BME280;31860;45.186;5.790;2023-03-01T08:42:39;99236.69;;;8.08;54.93
46129;BME280;31860;45.186;5.790;2023-03-01T08:45:05;99238.44;;;8.09;55.13
46129;BME280;31860;45.186;5.790;2023-03-01T08:47:30;99238.44;;;8.09;55.44
46129;BME280;31860;45.186;5.790;2023-03-01T08:49:56;99228.06;;;8.12;55.17
46129;BME280;31860;45.186;5.790;2023-03-01T08:52:21;99226.28;;;8.11;55.15
46129;BME280;31860;45.186;5.790;2023-03-01T08:54:48;99227.22;;;8.14;55.15
46129;BME280;31860;45.186;5.790;2023-03-01T08:57:14;99228.06;;;8.15;54.98
46129;BME280;31860;45.186;5.790;2023-03-01T08:59:39;99235.03;;;8.16;55.12
46129;BME280;31860;45.186;5.790;2023-03-01T09:02:11;99231.56;;;8.17;55.07
46129;BME280;31860;45.186;5.790;2023-03-01T09:04:37;99224.66;;;8.19;54.98
46129;BME280;31860;45.186;5.790;2023-03-01T09:07:03;99228.13;;;8.19;55.27
46129;BME280;31860;45.186;5.790;2023-03-01T09:09:29;99225.53;;;8.19;55.18
46129;BME280;31860;45.186;5.790;2023-03-01T09:11:55;99220.34;;;8.21;55.06
46129;BME280;31860;45.186;5.790;2023-03-01T09:14:20;99222.94;;;8.22;54.92
46129;BME280;31860;45.186;5.790;2023-03-01T09:16:46;99217.75;;;8.21;54.70
46129;BME280;31860;45.186;5.790;2023-03-01T09:19:12;99221.22;;;8.23;54.82
46129;BME280;31860;45.186;5.790;2023-03-01T09:21:38;99222.09;;;8.22;54.94
46129;BME280;31860;45.186;5.790;2023-03-01T09:24:03;99222.09;;;8.23;54.82
46129;BME280;31860;45.186;5.790;2023-03-01T09:26:29;99220.38;;;8.24;54.82
46129;BME280;31860;45.186;5.790;2023-03-01T09:28:55;99222.16;;;8.26;54.91
46129;BME280;31860;45.186;5.790;2023-03-01T09:31:22;99211.75;;;8.26;54.70
46129;BME280;31860;45.186;5.790;2023-03-01T09:33:53;99215.25;;;8.28;55.10
46129;BME280;31860;45.186;5.790;2023-03-01T09:36:21;99218.72;;;8.27;54.88
46129;BME280;31860;45.186;5.790;2023-03-01T09:38:47;99223.94;;;8.30;54.39
46129;BME280;31860;45.186;5.790;2023-03-01T09:46:52;99210.03;;;8.30;54.73
46129;BME280;31860;45.186;5.790;2023-03-01T09:49:23;99210.94;;;8.32;54.78
46129;BME280;31860;45.186;5.790;2023-03-01T09:51:56;99209.22;;;8.34;54.53
46129;BME280;31860;45.186;5.790;2023-03-01T09:54:22;99206.63;;;8.34;54.55
46129;BME280;31860;45.186;5.790;2023-03-01T09:57:01;99204.03;;;8.35;54.48
46129;BME280;31860;45.186;5.790;2023-03-01T10:05:35;99193.66;;;8.37;54.49
46129;BME280;31860;45.186;5.790;2023-03-01T10:10:39;99191.94;;;8.42;54.96
46129;BME280;31860;45.186;5.790;2023-03-01T10:13:24;99187.63;;;8.45;55.23
46129;BME280;31860;45.186;5.790;2023-03-01T10:15:55;99183.38;;;8.52;54.89
46129;BME280;31860;45.186;5.790;2023-03-01T10:18:26;99180.78;;;8.56;54.82
46129;BME280;31860;45.186;5.790;2023-03-01T10:21:00;99178.19;;;8.58;54.62
46129;BME280;31860;45.186;5.790;2023-03-01T10:23:27;99173.03;;;8.61;54.68
46129;BME280;31860;45.186;5.790;2023-03-01T10:26:07;99174.75;;;8.60;54.69
46129;BME280;31860;45.186;5.790;2023-03-01T10:29:04;99165.22;;;8.61;54.50
46129;BME280;31860;45.186;5.790;2023-03-01T10:31:35;99164.34;;;8.62;54.82
46129;BME280;31860;45.186;5.790;2023-03-01T10:34:17;99161.72;;;8.62;54.74
46129;BME280;31860;45.186;5.790;2023-03-01T10:36:46;99160.91;;;8.65;54.55
46129;BME280;31860;45.186;5.790;2023-03-01T10:39:22;99155.69;;;8.66;54.46
46129;BME280;31860;45.186;5.790;2023-03-01T10:44:45;99145.31;;;8.69;53.87
46129;BME280;31860;45.186;5.790;2023-03-01T10:47:26;99153.97;;;8.71;53.70
46129;BME280;31860;45.186;5.790;2023-03-01T10:49:56;99148.78;;;8.70;53.71
46129;BME280;31860;45.186;5.790;2023-03-01T10:52:31;99156.56;;;8.70;53.66
46129;BME280;31860;45.186;5.790;2023-03-01T10:55:04;99149.66;;;8.72;53.48
46129;BME280;31860;45.186;5.790;2023-03-01T10:57:45;99158.34;;;8.74;53.82
46129;BME280;31860;45.186;5.790;2023-03-01T11:02:50;99147.06;;;8.73;53.50
46129;BME280;31860;45.186;5.790;2023-03-01T11:05:22;99141.00;;;8.73;53.17
46129;BME280;31860;45.186;5.790;2023-03-01T11:07:56;99144.47;;;8.75;53.07
46129;BME280;31860;45.186;5.790;2023-03-01T11:10:24;99132.34;;;8.77;52.60
46129;BME280;31860;45.186;5.790;2023-03-01T11:12:52;99135.78;;;8.77;52.48
46129;BME280;31860;45.186;5.790;2023-03-01T11:15:26;99134.94;;;8.78;52.56
46129;BME280;31860;45.186;5.790;2023-03-01T11:17:52;99130.59;;;8.77;52.92
46129;BME280;31860;45.186;5.790;2023-03-01T11:23:12;99127.16;;;8.80;52.49
46129;BME280;31860;45.186;5.790;2023-03-01T11:25:42;99121.09;;;8.82;52.49
46129;BME280;31860;45.186;5.790;2023-03-01T11:28:13;99118.50;;;8.84;52.29
46129;BME280;31860;45.186;5.790;2023-03-01T11:30:48;99113.28;;;8.85;52.22
46129;BME280;31860;45.186;5.790;2023-03-01T11:33:20;99114.16;;;8.87;52.01
46129;BME280;31860;45.186;5.790;2023-03-01T11:36:02;99112.41;;;8.86;52.05
46129;BME280;31860;45.186;5.790;2023-03-01T11:38:33;99102.88;;;8.88;51.90
46129;BME280;31860;45.186;5.790;2023-03-01T11:41:06;99098.53;;;8.89;51.77
46129;BME280;31860;45.186;5.790;2023-03-01T11:43:35;99094.22;;;8.89;51.98
46129;BME280;31860;45.186;5.790;2023-03-01T11:46:27;99090.72;;;8.90;51.71
46129;BME280;31860;45.186;5.790;2023-03-01T11:49:15;99086.41;;;8.91;51.63
46129;BME280;31860;45.186;5.790;2023-03-01T11:52:28;99073.38;;;8.91;51.39
46129;BME280;31860;45.186;5.790;2023-03-01T11:57:52;99076.88;;;8.96;51.34
46129;BME280;31860;45.186;5.790;2023-03-01T12:00:51;99064.72;;;8.95;50.89
46129;BME280;31860;45.186;5.790;2023-03-01T12:09:21;99061.28;;;8.97;50.77
46129;BME280;31860;45.186;5.790;2023-03-01T12:23:03;99050.88;;;9.09;50.90
46129;BME280;31860;45.186;5.790;2023-03-01T12:25:39;99050.03;;;9.12;50.90
46129;BME280;31860;45.186;5.790;2023-03-01T12:50:41;99027.47;;;9.33;50.29
46129;BME280;31860;45.186;5.790;2023-03-01T12:56:00;99014.47;;;9.41;50.37
46129;BME280;31860;45.186;5.790;2023-03-01T12:58:41;99007.53;;;9.47;50.70
46129;BME280;31860;45.186;5.790;2023-03-01T13:01:41;99010.16;;;9.53;50.41
46129;BME280;31860;45.186;5.790;2023-03-01T13:07:39;99002.34;;;9.69;49.95
46129;BME280;31860;45.186;5.790;2023-03-01T13:10:34;98998.84;;;9.71;49.95
46129;BME280;31860;45.186;5.790;2023-03-01T13:15:39;98986.72;;;9.82;50.17
46129;BME280;31860;45.186;5.790;2023-03-01T13:23:25;98980.59;;;9.94;49.84
46129;BME280;31860;45.186;5.790;2023-03-01T13:31:03;98975.41;;;10.10;49.72
46129;BME280;31860;45.186;5.790;2023-03-01T13:35:59;98969.28;;;10.29;49.78
46129;BME280;31860;45.186;5.790;2023-03-01T13:38:48;98969.22;;;10.41;49.16
46129;BME280;31860;45.186;5.790;2023-03-01T13:46:59;98963.88;;;10.73;48.44
46129;BME280;31860;45.186;5.790;2023-03-01T13:49:32;98949.00;;;10.84;48.47
46129;BME280;31860;45.186;5.790;2023-03-01T13:52:01;98953.34;;;10.93;48.43
46129;BME280;31860;45.186;5.790;2023-03-01T13:54:31;98948.94;;;11.01;47.72
46129;BME280;31860;45.186;5.790;2023-03-01T13:56:59;98947.13;;;11.10;47.74
46129;BME280;31860;45.186;5.790;2023-03-01T13:59:26;98948.84;;;11.16;47.43
46129;BME280;31860;45.186;5.790;2023-03-01T14:01:54;98948.84;;;11.17;47.23
46129;BME280;31860;45.186;5.790;2023-03-01T14:04:23;98948.84;;;11.17;47.19
46129;BME280;31860;45.186;5.790;2023-03-01T14:06:51;98945.34;;;11.17;47.49
46129;BME280;31860;45.186;5.790;2023-03-01T14:09:26;98945.31;;;11.18;47.62
46129;BME280;31860;45.186;5.790;2023-03-01T14:12:38;98942.72;;;11.17;46.68
46129;BME280;31860;45.186;5.790;2023-03-01T14:15:29;98940.09;;;11.18;46.95
46129;BME280;31860;45.186;5.790;2023-03-01T14:18:07;98934.00;;;11.21;46.67
46129;BME280;31860;45.186;5.790;2023-03-01T14:20:41;98943.56;;;11.20;47.22
46129;BME280;31860;45.186;5.790;2023-03-01T14:23:28;98944.44;;;11.22;46.86
46129;BME280;31860;45.186;5.790;2023-03-01T14:25:56;98945.31;;;11.21;47.30
46129;BME280;31860;45.186;5.790;2023-03-01T14:28:31;98949.69;;;11.21;46.60
46129;BME280;31860;45.186;5.790;2023-03-01T14:31:29;98955.78;;;11.18;46.94
46129;BME280;31860;45.186;5.790;2023-03-01T14:33:55;98951.44;;;11.14;46.64
46129;BME280;31860;45.186;5.790;2023-03-01T14:36:26;98952.34;;;11.12;46.78
46129;BME280;31860;45.186;5.790;2023-03-01T14:38:52;98948.00;;;11.12;47.22
46129;BME280;31860;45.186;5.790;2023-03-01T14:41:25;98943.66;;;11.08;46.59
46129;BME280;31860;45.186;5.790;2023-03-01T14:43:55;98942.81;;;11.06;46.85
46129;BME280;31860;45.186;5.790;2023-03-01T14:46:37;98940.19;;;11.03;46.23
46129;BME280;31860;45.186;5.790;2023-03-01T14:49:07;98939.34;;;11.00;46.58
46129;BME280;31860;45.186;5.790;2023-03-01T14:51:37;98933.25;;;10.98;46.80
46129;BME280;31860;45.186;5.790;2023-03-01T14:54:11;98938.50;;;10.92;46.76
46129;BME280;31860;45.186;5.790;2023-03-01T14:56:45;98947.28;;;10.88;46.73
46129;BME280;31860;45.186;5.790;2023-03-01T14:59:11;98950.78;;;10.81;47.00
46129;BME280;31860;45.186;5.790;2023-03-01T15:01:36;98952.53;;;10.77;46.84
46129;BME280;31860;45.186;5.790;2023-03-01T15:04:02;98955.19;;;10.73;46.99
46129;BME280;31860;45.186;5.790;2023-03-01T15:06:28;98955.19;;;10.68;47.03